sensor_id;sensor_type;location;lat;lon;timestamp;pressure;altitude;pressure_sealevel;temperature;humidity
49397;BME280;35615;41.410;2.194;2022-12-16T00:02:26;99975.41;;;18.06;49.18
49397;BME280;35615;41.410;2.194;2022-12-16T00:04:56;99976.34;;;17.97;50.47
49397;BME280;35615;41.410;2.194;2022-12-16T00:07:24;99976.38;;;17.91;48.82
49397;BME280;35615;41.410;2.194;2022-12-16T00:09:55;99970.19;;;18.10;48.50
49397;BME280;35615;41.410;2.194;2022-12-16T00:12:25;99973.78;;;17.86;48.72
49397;BME280;35615;41.410;2.194;2022-12-16T00:14:56;99969.31;;;18.05;48.46
49397;BME280;35615;41.410;2.194;2022-12-16T00:17:26;99978.97;;;17.97;48.41
49397;BME280;35615;41.410;2.194;2022-12-16T00:19:56;99975.53;;;17.80;48.65
49397;BME280;35615;41.410;2.194;2022-12-16T00:22:24;99982.41;;;18.04;48.17
49397;BME280;35615;41.410;2.194;2022-12-16T00:24:56;99978.94;;;18.08;48.41
49397;BME280;35615;41.410;2.194;2022-12-16T00:27:25;99977.13;;;18.14;48.15
49397;BME280;35615;41.410;2.194;2022-12-16T00:29:53;99979.78;;;18.04;48.29
49397;BME280;35615;41.410;2.194;2022-12-16T00:32:22;99976.31;;;18.05;48.42
49397;BME280;35615;41.410;2.194;2022-12-16T00:34:50;99973.69;;;18.08;48.29
49397;BME280;35615;41.410;2.194;2022-12-16T00:37:20;99983.22;;;18.15;48.17
49397;BME280;35615;41.410;2.194;2022-12-16T00:39:49;99985.81;;;18.16;47.91
49397;BME280;35615;41.410;2.194;2022-12-16T00:42:17;99972.78;;;18.15;47.99
49397;BME280;35615;41.410;2.194;2022-12-16T00:44:51;99973.66;;;18.18;48.18
49397;BME280;35615;41.410;2.194;2022-12-16T00:47:21;99989.25;;;18.31;47.99
49397;BME280;35615;41.410;2.194;2022-12-16T00:49:55;99976.19;;;18.29;48.05
49397;BME280;35615;41.410;2.194;2022-12-16T00:52:23;99996.28;;;18.16;48.87
49397;BME280;35615;41.410;2.194;2022-12-16T00:54:51;99989.47;;;17.86;48.73
49397;BME280;35615;41.410;2.194;2022-12-16T00:57:22;99992.91;;;17.97;48.36
49397;BME280;35615;41.410;2.194;2022-12-16T00:59:49;99996.34;;;18.09;48.35
49397;BME280;35615;41.410;2.194;2022-12-16T01:02:18;100002.50;;;17.97;48.79
49397;BME280;35615;41.410;2.194;2022-12-16T01:04:54;99998.13;;;18.00;48.28
49397;BME280;35615;41.410;2.194;2022-12-16T01:07:26;99993.81;;;17.87;48.30
49397;BME280;35615;41.410;2.194;2022-12-16T01:09:57;100001.66;;;17.89;47.87
49397;BME280;35615;41.410;2.194;2022-12-16T01:12:29;100011.13;;;18.07;48.21
49397;BME280;35615;41.410;2.194;2022-12-16T01:14:59;100003.28;;;18.14;48.29
49397;BME280;35615;41.410;2.194;2022-12-16T01:17:27;100005.06;;;18.08;48.37
49397;BME280;35615;41.410;2.194;2022-12-16T01:19:55;100007.75;;;17.88;48.01
49397;BME280;35615;41.410;2.194;2022-12-16T01:22:23;100011.28;;;17.58;48.87
49397;BME280;35615;41.410;2.194;2022-12-16T01:24:51;100023.47;;;17.65;48.61
49397;BME280;35615;41.410;2.194;2022-12-16T01:27:21;100021.72;;;17.75;48.61
49397;BME280;35615;41.410;2.194;2022-12-16T01:29:49;100018.19;;;17.82;48.75
49397;BME280;35615;41.410;2.194;2022-12-16T01:32:16;100032.13;;;17.84;48.48
49397;BME280;35615;41.410;2.194;2022-12-16T01:34:48;100038.25;;;17.57;49.00
49397;BME280;35615;41.410;2.194;2022-12-16T01:37:22;100038.28;;;17.45;49.28
49397;BME280;35615;41.410;2.194;2022-12-16T01:39:50;100039.16;;;17.45;49.50
49397;BME280;35615;41.410;2.194;2022-12-16T01:42:19;100036.47;;;17.83;48.72
49397;BME280;35615;41.410;2.194;2022-12-16T01:44:48;100039.16;;;17.74;49.25
49397;BME280;35615;41.410;2.194;2022-12-16T01:47:25;100038.25;;;17.67;49.33
49397;BME280;35615;41.410;2.194;2022-12-16T01:50:10;100046.97;;;17.71;49.29
49397;BME280;35615;41.410;2.194;2022-12-16T01:52:41;100041.75;;;17.69;49.53
49397;BME280;35615;41.410;2.194;2022-12-16T01:55:11;100049.59;;;17.53;49.52
49397;BME280;35615;41.410;2.194;2022-12-16T01:57:44;100047.84;;;17.71;49.47
49397;BME280;35615;41.410;2.194;2022-12-16T02:00:16;100047.84;;;17.50;50.03
49397;BME280;35615;41.410;2.194;2022-12-16T02:02:44;100062.63;;;17.50;49.79
49397;BME280;35615;41.410;2.194;2022-12-16T02:05:15;100052.19;;;17.69;49.43
49397;BME280;35615;41.410;2.194;2022-12-16T02:10:20;100072.22;;;17.70;49.47
49397;BME280;35615;41.410;2.194;2022-12-16T02:13:00;100092.25;;;17.70;49.34
49397;BME280;35615;41.410;2.194;2022-12-16T02:21:08;100099.22;;;17.63;49.23
49397;BME280;35615;41.410;2.194;2022-12-16T02:31:54;100100.94;;;17.48;49.15
49397;BME280;35615;41.410;2.194;2022-12-16T02:34:29;100114.91;;;17.74;48.74
49397;BME280;35615;41.410;2.194;2022-12-16T02:37:13;100111.38;;;17.84;48.71
49397;BME280;35615;41.410;2.194;2022-12-16T02:39:54;100117.50;;;17.85;49.20
49397;BME280;35615;41.410;2.194;2022-12-16T02:42:30;100113.13;;;17.88;49.12
49397;BME280;35615;41.410;2.194;2022-12-16T02:45:15;100115.75;;;17.71;49.74
49397;BME280;35615;41.410;2.194;2022-12-16T02:47:46;100122.72;;;17.85;49.12
49397;BME280;35615;41.410;2.194;2022-12-16T02:50:19;100120.13;;;17.85;49.20
49397;BME280;35615;41.410;2.194;2022-12-16T02:52:51;100122.72;;;17.86;49.17
49397;BME280;35615;41.410;2.194;2022-12-16T02:55:21;100134.06;;;17.78;49.15
49397;BME280;35615;41.410;2.194;2022-12-16T02:57:59;100146.22;;;17.82;49.04
49397;BME280;35615;41.410;2.194;2022-12-16T03:00:34;100145.38;;;17.77;49.42
49397;BME280;35615;41.410;2.194;2022-12-16T03:03:17;100148.88;;;17.77;49.76
49397;BME280;35615;41.410;2.194;2022-12-16T03:05:49;100156.66;;;17.68;50.04
49397;BME280;35615;41.410;2.194;2022-12-16T03:08:20;100159.28;;;17.65;50.20
49397;BME280;35615;41.410;2.194;2022-12-16T03:10:51;100151.44;;;17.57;50.56
49397;BME280;35615;41.410;2.194;2022-12-16T03:13:21;100154.03;;;17.51;50.96
49397;BME280;35615;41.410;2.194;2022-12-16T03:15:52;100158.41;;;17.55;51.20
49397;BME280;35615;41.410;2.194;2022-12-16T03:18:21;100154.03;;;17.48;51.67
49397;BME280;35615;41.410;2.194;2022-12-16T03:20:58;100154.06;;;17.45;51.65
49397;BME280;35615;41.410;2.194;2022-12-16T03:23:28;100157.53;;;17.41;51.90
49397;BME280;35615;41.410;2.194;2022-12-16T03:26:02;100160.16;;;17.42;52.06
49397;BME280;35615;41.410;2.194;2022-12-16T03:33:55;100167.97;;;17.35;51.68
49397;BME280;35615;41.410;2.194;2022-12-16T03:36:26;100176.66;;;17.37;51.45
49397;BME280;35615;41.410;2.194;2022-12-16T03:38:58;100176.66;;;17.35;51.52
49397;BME280;35615;41.410;2.194;2022-12-16T03:41:28;100174.94;;;17.31;51.87
49397;BME280;35615;41.410;2.194;2022-12-16T03:43:57;100180.16;;;17.37;51.69
49397;BME280;35615;41.410;2.194;2022-12-16T03:46:25;100173.19;;;17.30;51.53
49397;BME280;35615;41.410;2.194;2022-12-16T03:48:53;100174.94;;;17.31;52.11
49397;BME280;35615;41.410;2.194;2022-12-16T03:51:22;100181.91;;;17.34;52.16
49397;BME280;35615;41.410;2.194;2022-12-16T03:53:53;100172.31;;;17.33;52.33
49397;BME280;35615;41.410;2.194;2022-12-16T03:56:21;100177.53;;;17.33;52.80
49397;BME280;35615;41.410;2.194;2022-12-16T03:58:48;100177.50;;;17.28;53.13
49397;BME280;35615;41.410;2.194;2022-12-16T04:01:16;100178.38;;;17.27;53.74
49397;BME280;35615;41.410;2.194;2022-12-16T04:03:47;100181.88;;;17.23;53.42
49397;BME280;35615;41.410;2.194;2022-12-16T04:06:15;100180.13;;;17.22;53.42
49397;BME280;35615;41.410;2.194;2022-12-16T04:08:47;100187.94;;;17.18;53.59
49397;BME280;35615;41.410;2.194;2022-12-16T04:11:15;100187.97;;;17.19;53.60
49397;BME280;35615;41.410;2.194;2022-12-16T04:14:08;100176.66;;;17.19;53.43
49397;BME280;35615;41.410;2.194;2022-12-16T04:16:54;100180.97;;;17.18;53.05
49397;BME280;35615;41.410;2.194;2022-12-16T04:19:44;100187.09;;;17.19;53.21
49397;BME280;35615;41.410;2.194;2022-12-16T04:22:36;100188.81;;;17.12;53.46
49397;BME280;35615;41.410;2.194;2022-12-16T04:25:30;100187.94;;;17.10;53.43
49397;BME280;35615;41.410;2.194;2022-12-16T04:28:02;100191.41;;;17.09;53.40
49397;BME280;35615;41.410;2.194;2022-12-16T04:30:30;100201.81;;;17.04;53.48
49397;BME280;35615;41.410;2.194;2022-12-16T04:33:05;100200.09;;;17.03;53.64
49397;BME280;35615;41.410;2.194;2022-12-16T04:36:09;100207.00;;;16.95;53.76
49397;BME280;35615;41.410;2.194;2022-12-16T04:38:55;100204.41;;;16.91;53.91
49397;BME280;35615;41.410;2.194;2022-12-16T04:41:42;100201.78;;;16.91;53.89
49397;BME280;35615;41.410;2.194;2022-12-16T04:44:31;100221.78;;;16.92;53.83
49397;BME280;35615;41.410;2.194;2022-12-16T04:47:19;100217.41;;;16.84;54.00
49397;BME280;35615;41.410;2.194;2022-12-16T04:50:05;100226.09;;;16.79;53.67
49397;BME280;35615;41.410;2.194;2022-12-16T04:52:51;100224.34;;;16.75;54.00
49397;BME280;35615;41.410;2.194;2022-12-16T04:55:38;100218.22;;;16.71;54.36
49397;BME280;35615;41.410;2.194;2022-12-16T04:58:31;100235.56;;;16.65;54.42
49397;BME280;35615;41.410;2.194;2022-12-16T05:01:17;100227.78;;;16.68;54.51
49397;BME280;35615;41.410;2.194;2022-12-16T05:04:03;100235.56;;;16.65;54.39
49397;BME280;35615;41.410;2.194;2022-12-16T05:06:49;100238.13;;;16.60;54.57
49397;BME280;35615;41.410;2.194;2022-12-16T05:09:35;100231.16;;;16.58;54.87
49397;BME280;35615;41.410;2.194;2022-12-16T05:12:20;100229.44;;;16.56;54.82
49397;BME280;35615;41.410;2.194;2022-12-16T05:15:06;100242.41;;;16.49;54.96
49397;BME280;35615;41.410;2.194;2022-12-16T05:17:51;100252.88;;;16.52;55.33
49397;BME280;35615;41.410;2.194;2022-12-16T05:20:44;100254.63;;;16.53;55.16
49397;BME280;35615;41.410;2.194;2022-12-16T05:23:29;100250.16;;;16.37;55.32
49397;BME280;35615;41.410;2.194;2022-12-16T05:26:16;100251.09;;;16.42;55.57
49397;BME280;35615;41.410;2.194;2022-12-16T05:29:02;100258.03;;;16.41;55.75
49397;BME280;35615;41.410;2.194;2022-12-16T05:31:48;100257.16;;;16.44;55.52
49397;BME280;35615;41.410;2.194;2022-12-16T05:34:33;100252.81;;;16.44;55.45
49397;BME280;35615;41.410;2.194;2022-12-16T05:37:19;100262.38;;;16.42;55.48
49397;BME280;35615;41.410;2.194;2022-12-16T05:40:06;100270.16;;;16.39;55.53
49397;BME280;35615;41.410;2.194;2022-12-16T05:42:53;100272.81;;;16.41;55.32
49397;BME280;35615;41.410;2.194;2022-12-16T05:45:42;100273.63;;;16.37;55.07
49397;BME280;35615;41.410;2.194;2022-12-16T05:48:28;100276.22;;;16.34;55.33
49397;BME280;35615;41.410;2.194;2022-12-16T05:51:14;100280.56;;;16.32;55.71
49397;BME280;35615;41.410;2.194;2022-12-16T05:53:59;100281.44;;;16.34;56.00
49397;BME280;35615;41.410;2.194;2022-12-16T05:56:45;100281.34;;;16.24;56.06
49397;BME280;35615;41.410;2.194;2022-12-16T05:59:31;100291.78;;;16.21;56.24
49397;BME280;35615;41.410;2.194;2022-12-16T06:02:18;100303.94;;;16.22;56.14
49397;BME280;35615;41.410;2.194;2022-12-16T06:05:04;100303.09;;;16.26;55.89
49397;BME280;35615;41.410;2.194;2022-12-16T06:07:50;100306.53;;;16.19;56.29
49397;BME280;35615;41.410;2.194;2022-12-16T06:10:36;100310.03;;;16.23;56.23
49397;BME280;35615;41.410;2.194;2022-12-16T06:13:21;100315.25;;;16.26;56.17
49397;BME280;35615;41.410;2.194;2022-12-16T06:16:07;100318.72;;;16.25;55.99
49397;BME280;35615;41.410;2.194;2022-12-16T06:18:53;100331.72;;;16.20;56.19
49397;BME280;35615;41.410;2.194;2022-12-16T06:21:39;100326.53;;;16.23;56.22
49397;BME280;35615;41.410;2.194;2022-12-16T06:24:24;100328.28;;;16.26;56.33
49397;BME280;35615;41.410;2.194;2022-12-16T06:27:10;100335.25;;;16.28;56.17
49397;BME280;35615;41.410;2.194;2022-12-16T06:29:56;100335.22;;;16.22;56.83
49397;BME280;35615;41.410;2.194;2022-12-16T06:32:41;100331.72;;;16.22;56.93
49397;BME280;35615;41.410;2.194;2022-12-16T06:35:29;100344.78;;;16.25;57.23
49397;BME280;35615;41.410;2.194;2022-12-16T06:38:16;100338.69;;;16.24;57.36
49397;BME280;35615;41.410;2.194;2022-12-16T06:41:01;100338.69;;;16.21;56.71
49397;BME280;35615;41.410;2.194;2022-12-16T06:43:47;100342.19;;;16.25;56.72
49397;BME280;35615;41.410;2.194;2022-12-16T06:46:33;100345.56;;;16.18;56.27
49397;BME280;35615;41.410;2.194;2022-12-16T06:49:18;100343.91;;;16.24;56.12
49397;BME280;35615;41.410;2.194;2022-12-16T06:52:08;100350.84;;;16.21;56.31
49397;BME280;35615;41.410;2.194;2022-12-16T06:54:58;100354.34;;;16.26;55.94
49397;BME280;35615;41.410;2.194;2022-12-16T06:57:43;100361.88;;;15.95;54.51
49397;BME280;35615;41.410;2.194;2022-12-16T07:00:35;100360.22;;;16.05;54.03
49397;BME280;35615;41.410;2.194;2022-12-16T07:03:21;100352.50;;;16.11;54.04
49397;BME280;35615;41.410;2.194;2022-12-16T07:06:08;100368.16;;;16.16;53.98
49397;BME280;35615;41.410;2.194;2022-12-16T07:09:00;100370.75;;;16.16;53.63
49397;BME280;35615;41.410;2.194;2022-12-16T07:11:49;100371.53;;;16.06;53.48
49397;BME280;35615;41.410;2.194;2022-12-16T07:14:35;100380.28;;;16.09;53.53
49397;BME280;35615;41.410;2.194;2022-12-16T07:17:20;100390.63;;;16.05;53.47
49397;BME280;35615;41.410;2.194;2022-12-16T07:20:06;100388.78;;;15.93;53.53
49397;BME280;35615;41.410;2.194;2022-12-16T07:22:52;100396.72;;;16.07;53.24
49397;BME280;35615;41.410;2.194;2022-12-16T07:25:45;100400.19;;;16.06;53.18
49397;BME280;35615;41.410;2.194;2022-12-16T07:28:35;100394.97;;;16.03;53.55
49397;BME280;35615;41.410;2.194;2022-12-16T07:31:21;100385.59;;;16.20;53.84
49397;BME280;35615;41.410;2.194;2022-12-16T07:34:07;100394.16;;;16.10;53.40
49397;BME280;35615;41.410;2.194;2022-12-16T07:36:53;100402.09;;;16.22;53.41
49397;BME280;35615;41.410;2.194;2022-12-16T07:39:39;100408.19;;;16.21;53.17
49397;BME280;35615;41.410;2.194;2022-12-16T07:42:25;100411.69;;;16.24;53.30
49397;BME280;35615;41.410;2.194;2022-12-16T07:45:10;100411.66;;;16.23;53.53
49397;BME280;35615;41.410;2.194;2022-12-16T07:47:56;100420.25;;;16.14;53.25
49397;BME280;35615;41.410;2.194;2022-12-16T07:50:42;100420.34;;;16.20;53.20
49397;BME280;35615;41.410;2.194;2022-12-16T07:53:28;100410.78;;;16.22;53.10
49397;BME280;35615;41.410;2.194;2022-12-16T07:56:13;100419.41;;;16.17;52.82
49397;BME280;35615;41.410;2.194;2022-12-16T07:58:59;100423.91;;;16.30;52.97
49397;BME280;35615;41.410;2.194;2022-12-16T08:01:45;100431.72;;;16.30;52.83
49397;BME280;35615;41.410;2.194;2022-12-16T08:04:39;100435.25;;;16.37;52.88
49397;BME280;35615;41.410;2.194;2022-12-16T08:07:25;100444.81;;;16.36;52.50
49397;BME280;35615;41.410;2.194;2022-12-16T08:10:11;100444.81;;;16.35;52.74
49397;BME280;35615;41.410;2.194;2022-12-16T08:13:00;100446.53;;;16.33;52.28
49397;BME280;35615;41.410;2.194;2022-12-16T08:15:51;100450.88;;;16.34;52.34
49397;BME280;35615;41.410;2.194;2022-12-16T08:18:40;100456.19;;;16.41;52.55
49397;BME280;35615;41.410;2.194;2022-12-16T08:21:37;100454.28;;;16.26;52.41
49397;BME280;35615;41.410;2.194;2022-12-16T08:24:22;100455.19;;;16.30;52.48
49397;BME280;35615;41.410;2.194;2022-12-16T08:27:15;100470.53;;;16.03;52.53
49397;BME280;35615;41.410;2.194;2022-12-16T08:30:01;100476.75;;;16.17;52.49
49397;BME280;35615;41.410;2.194;2022-12-16T08:32:49;100474.31;;;16.32;52.23
49397;BME280;35615;41.410;2.194;2022-12-16T08:35:45;100481.16;;;16.21;52.53
49397;BME280;35615;41.410;2.194;2022-12-16T08:38:31;100477.81;;;16.34;52.29
49397;BME280;35615;41.410;2.194;2022-12-16T08:41:26;100494.19;;;16.21;52.39
49397;BME280;35615;41.410;2.194;2022-12-16T08:44:12;100494.47;;;16.47;51.69
49397;BME280;35615;41.410;2.194;2022-12-16T08:47:01;100492.81;;;16.56;51.62
49397;BME280;35615;41.410;2.194;2022-12-16T08:49:47;100497.19;;;16.61;51.43
49397;BME280;35615;41.410;2.194;2022-12-16T08:52:32;100503.41;;;16.70;50.97
49397;BME280;35615;41.410;2.194;2022-12-16T08:55:21;100513.13;;;16.88;50.79
49397;BME280;35615;41.410;2.194;2022-12-16T08:58:08;100514.06;;;16.95;50.32
49397;BME280;35615;41.410;2.194;2022-12-16T09:00:54;100524.56;;;17.01;49.82
49397;BME280;35615;41.410;2.194;2022-12-16T09:03:49;100522.88;;;17.09;49.39
49397;BME280;35615;41.410;2.194;2022-12-16T09:06:47;100536.88;;;17.19;49.00
49397;BME280;35615;41.410;2.194;2022-12-16T09:09:33;100532.56;;;17.27;49.07
49397;BME280;35615;41.410;2.194;2022-12-16T09:12:23;100546.72;;;17.56;48.63
49397;BME280;35615;41.410;2.194;2022-12-16T09:15:09;100540.78;;;17.74;48.05
49397;BME280;35615;41.410;2.194;2022-12-16T09:17:56;100550.47;;;17.99;47.69
49397;BME280;35615;41.410;2.194;2022-12-16T09:20:47;100544.38;;;18.07;47.59
49397;BME280;35615;41.410;2.194;2022-12-16T09:23:33;100553.03;;;17.90;47.53
49397;BME280;35615;41.410;2.194;2022-12-16T09:26:23;100559.06;;;17.74;47.77
49397;BME280;35615;41.410;2.194;2022-12-16T09:29:19;100560.81;;;17.80;47.82
49397;BME280;35615;41.410;2.194;2022-12-16T09:32:10;100563.47;;;17.86;47.97
49397;BME280;35615;41.410;2.194;2022-12-16T09:35:12;100566.97;;;17.92;47.64
49397;BME280;35615;41.410;2.194;2022-12-16T09:38:00;100568.91;;;18.36;46.81
49397;BME280;35615;41.410;2.194;2022-12-16T09:40:47;100571.69;;;18.91;45.96
49397;BME280;35615;41.410;2.194;2022-12-16T09:52:36;100579.38;;;20.31;42.81
49397;BME280;35615;41.410;2.194;2022-12-16T09:55:28;100581.72;;;20.83;41.48
49397;BME280;35615;41.410;2.194;2022-12-16T09:58:18;100584.53;;;20.57;41.90
49397;BME280;35615;41.410;2.194;2022-12-16T10:01:07;100578.13;;;21.01;41.31
49397;BME280;35615;41.410;2.194;2022-12-16T10:03:55;100582.53;;;20.98;41.01
49397;BME280;35615;41.410;2.194;2022-12-16T10:06:45;100580.44;;;21.44;40.35
49397;BME280;35615;41.410;2.194;2022-12-16T10:09:46;100574.22;;;21.53;39.55
49397;BME280;35615;41.410;2.194;2022-12-16T10:15:48;100591.69;;;22.41;38.03
49397;BME280;35615;41.410;2.194;2022-12-16T10:22:12;100579.59;;;22.89;36.86
49397;BME280;35615;41.410;2.194;2022-12-16T10:25:25;100581.31;;;22.92;36.36
49397;BME280;35615;41.410;2.194;2022-12-16T10:28:17;100588.44;;;22.16;37.70
49397;BME280;35615;41.410;2.194;2022-12-16T10:31:11;100582.91;;;23.02;36.48
49397;BME280;35615;41.410;2.194;2022-12-16T10:34:08;100584.78;;;22.96;35.62
49397;BME280;35615;41.410;2.194;2022-12-16T10:36:57;100575.16;;;23.45;35.86
49397;BME280;35615;41.410;2.194;2022-12-16T10:39:58;100584.31;;;23.77;34.88
49397;BME280;35615;41.410;2.194;2022-12-16T10:43:04;100577.50;;;24.10;34.27
49397;BME280;35615;41.410;2.194;2022-12-16T10:46:26;100578.28;;;24.15;34.04
49397;BME280;35615;41.410;2.194;2022-12-16T10:49:27;100578.44;;;24.08;33.78
49397;BME280;35615;41.410;2.194;2022-12-16T10:52:59;100579.00;;;25.04;33.03
49397;BME280;35615;41.410;2.194;2022-12-16T10:59:17;100562.97;;;25.80;31.62
49397;BME280;35615;41.410;2.194;2022-12-16T11:02:26;100567.84;;;25.95;31.43
49397;BME280;35615;41.410;2.194;2022-12-16T11:05:29;100555.66;;;25.89;30.75
49397;BME280;35615;41.410;2.194;2022-12-16T11:08:29;100550.19;;;25.63;31.22
49397;BME280;35615;41.410;2.194;2022-12-16T11:11:25;100559.91;;;26.24;31.18
49397;BME280;35615;41.410;2.194;2022-12-16T11:17:12;100553.34;;;26.67;29.74
49397;BME280;35615;41.410;2.194;2022-12-16T11:20:06;100549.63;;;27.01;29.23
49397;BME280;35615;41.410;2.194;2022-12-16T11:34:51;100541.75;;;28.92;26.12
49397;BME280;35615;41.410;2.194;2022-12-16T11:37:53;100534.38;;;29.41;26.09
49397;BME280;35615;41.410;2.194;2022-12-16T11:40:45;100535.91;;;29.27;25.48
49397;BME280;35615;41.410;2.194;2022-12-16T11:43:37;100529.38;;;29.95;25.22
49397;BME280;35615;41.410;2.194;2022-12-16T11:46:32;100532.56;;;30.22;24.73
49397;BME280;35615;41.410;2.194;2022-12-16T11:49:59;100527.06;;;30.81;24.98
49397;BME280;35615;41.410;2.194;2022-12-16T11:52:51;100517.72;;;30.54;24.81
49397;BME280;35615;41.410;2.194;2022-12-16T11:55:47;100520.22;;;28.55;26.62
49397;BME280;35615;41.410;2.194;2022-12-16T12:01:59;100515.72;;;30.40;24.42
49397;BME280;35615;41.410;2.194;2022-12-16T12:04:52;100517.31;;;30.44;25.00
49397;BME280;35615;41.410;2.194;2022-12-16T12:07:43;100520.88;;;29.66;25.26
49397;BME280;35615;41.410;2.194;2022-12-16T12:13:49;100526.81;;;29.53;25.05
49397;BME280;35615;41.410;2.194;2022-12-16T12:16:45;100522.78;;;28.34;26.67
49397;BME280;35615;41.410;2.194;2022-12-16T12:19:55;100529.19;;;27.56;27.39
49397;BME280;35615;41.410;2.194;2022-12-16T12:22:49;100537.41;;;27.23;27.88
49397;BME280;35615;41.410;2.194;2022-12-16T12:25:49;100533.97;;;27.96;27.14
49397;BME280;35615;41.410;2.194;2022-12-16T12:38:04;100518.50;;;29.60;25.32
49397;BME280;35615;41.410;2.194;2022-12-16T12:44:02;100518.19;;;29.26;25.77
49397;BME280;35615;41.410;2.194;2022-12-16T12:47:07;100512.53;;;29.33;25.18
49397;BME280;35615;41.410;2.194;2022-12-16T12:50:08;100508.25;;;30.29;24.68
49397;BME280;35615;41.410;2.194;2022-12-16T12:58:39;100508.03;;;29.76;25.26
49397;BME280;35615;41.410;2.194;2022-12-16T13:01:35;100520.44;;;28.94;25.11
49397;BME280;35615;41.410;2.194;2022-12-16T13:04:52;100507.41;;;29.50;24.89
49397;BME280;35615;41.410;2.194;2022-12-16T13:07:44;100510.63;;;28.51;25.97
49397;BME280;35615;41.410;2.194;2022-12-16T13:10:36;100514.41;;;28.89;26.11
49397;BME280;35615;41.410;2.194;2022-12-16T13:13:32;100506.28;;;28.70;26.02
49397;BME280;35615;41.410;2.194;2022-12-16T13:22:30;100509.09;;;27.75;26.83
49397;BME280;35615;41.410;2.194;2022-12-16T13:28:25;100510.97;;;26.93;27.37
49397;BME280;35615;41.410;2.194;2022-12-16T13:31:12;100528.78;;;27.68;26.59
49397;BME280;35615;41.410;2.194;2022-12-16T13:34:02;100515.28;;;27.24;27.26
49397;BME280;35615;41.410;2.194;2022-12-16T13:36:55;100517.94;;;27.24;26.99
49397;BME280;35615;41.410;2.194;2022-12-16T13:40:26;100524.28;;;26.92;26.99
49397;BME280;35615;41.410;2.194;2022-12-16T13:43:14;100517.59;;;27.33;26.86
49397;BME280;35615;41.410;2.194;2022-12-16T13:48:51;100514.16;;;27.31;27.16
49397;BME280;35615;41.410;2.194;2022-12-16T13:54:26;100520.00;;;28.14;26.40
49397;BME280;35615;41.410;2.194;2022-12-16T13:57:13;100519.91;;;28.62;25.95
49397;BME280;35615;41.410;2.194;2022-12-16T14:00:03;100526.81;;;28.21;25.73
49397;BME280;35615;41.410;2.194;2022-12-16T14:02:57;100532.31;;;27.68;26.40
49397;BME280;35615;41.410;2.194;2022-12-16T14:05:44;100531.59;;;27.88;26.34
49397;BME280;35615;41.410;2.194;2022-12-16T14:08:32;100542.34;;;27.85;26.31
49397;BME280;35615;41.410;2.194;2022-12-16T14:14:28;100551.28;;;25.54;28.80
49397;BME280;35615;41.410;2.194;2022-12-16T14:17:23;100548.28;;;24.98;29.15
49397;BME280;35615;41.410;2.194;2022-12-16T14:20:18;100555.91;;;25.46;29.23
49397;BME280;35615;41.410;2.194;2022-12-16T14:26:29;100563.03;;;24.70;29.91
49397;BME280;35615;41.410;2.194;2022-12-16T14:29:24;100567.81;;;24.11;31.05
49397;BME280;35615;41.410;2.194;2022-12-16T14:32:44;100577.47;;;24.12;31.33
49397;BME280;35615;41.410;2.194;2022-12-16T14:35:26;100588.41;;;23.42;31.77
49397;BME280;35615;41.410;2.194;2022-12-16T14:38:29;100594.97;;;23.18;32.06
49397;BME280;35615;41.410;2.194;2022-12-16T14:41:23;100594.84;;;22.66;33.31
49397;BME280;35615;41.410;2.194;2022-12-16T14:44:22;100598.41;;;22.64;33.34
49397;BME280;35615;41.410;2.194;2022-12-16T14:49:55;100601.97;;;22.58;33.68
49397;BME280;35615;41.410;2.194;2022-12-16T14:52:41;100603.00;;;22.46;33.83
49397;BME280;35615;41.410;2.194;2022-12-16T14:55:31;100612.06;;;22.24;34.15
49397;BME280;35615;41.410;2.194;2022-12-16T14:58:21;100607.03;;;22.01;34.28
49397;BME280;35615;41.410;2.194;2022-12-16T15:01:12;100613.59;;;22.43;34.20
49397;BME280;35615;41.410;2.194;2022-12-16T15:03:59;100619.56;;;22.54;33.83
49397;BME280;35615;41.410;2.194;2022-12-16T15:06:51;100625.81;;;22.47;34.08
49397;BME280;35615;41.410;2.194;2022-12-16T15:09:41;100624.78;;;22.59;34.11
49397;BME280;35615;41.410;2.194;2022-12-16T15:12:30;100628.41;;;22.50;34.34
49397;BME280;35615;41.410;2.194;2022-12-16T15:15:37;100639.03;;;21.57;35.65
49397;BME280;35615;41.410;2.194;2022-12-16T15:18:28;100646.16;;;21.42;35.87
49397;BME280;35615;41.410;2.194;2022-12-16T15:21:16;100645.06;;;21.66;35.70
49397;BME280;35615;41.410;2.194;2022-12-16T15:24:06;100641.47;;;21.77;35.55
49397;BME280;35615;41.410;2.194;2022-12-16T15:27:11;100655.47;;;21.80;35.81
49397;BME280;35615;41.410;2.194;2022-12-16T15:29:57;100659.03;;;21.73;35.64
49397;BME280;35615;41.410;2.194;2022-12-16T15:32:50;100661.84;;;21.50;36.08
49397;BME280;35615;41.410;2.194;2022-12-16T15:35:36;100669.56;;;21.71;36.34
49397;BME280;35615;41.410;2.194;2022-12-16T15:38:26;100667.88;;;21.61;36.38
49397;BME280;35615;41.410;2.194;2022-12-16T15:41:13;100672.28;;;21.62;36.69
49397;BME280;35615;41.410;2.194;2022-12-16T15:44:02;100673.88;;;21.79;36.62
49397;BME280;35615;41.410;2.194;2022-12-16T15:46:48;100682.63;;;21.79;36.77
49397;BME280;35615;41.410;2.194;2022-12-16T15:49:35;100685.31;;;21.74;36.69
49397;BME280;35615;41.410;2.194;2022-12-16T15:55:24;100684.63;;;21.50;37.39
49397;BME280;35615;41.410;2.194;2022-12-16T15:58:11;100697.03;;;21.32;37.29
49397;BME280;35615;41.410;2.194;2022-12-16T16:00:57;100685.63;;;21.39;37.52
49397;BME280;35615;41.410;2.194;2022-12-16T16:03:49;100701.44;;;21.24;37.65
49397;BME280;35615;41.410;2.194;2022-12-16T16:06:37;100703.47;;;20.70;38.52
49397;BME280;35615;41.410;2.194;2022-12-16T16:09:29;100700.72;;;20.95;38.67
49397;BME280;35615;41.410;2.194;2022-12-16T16:12:16;100714.75;;;20.91;38.22